sensor_id;sensor_type;location;lat;lon;timestamp;temperature;humidity
38456;DHT22;24237;50.106;20.014;2022-09-13T00:02:03;14.10;99.90
38456;DHT22;24237;50.106;20.014;2022-09-13T00:04:28;13.90;99.90
38456;DHT22;24237;50.106;20.014;2022-09-13T00:06:57;13.90;99.90
38456;DHT22;24237;50.106;20.014;2022-09-13T00:09:22;13.80;99.90
38456;DHT22;24237;50.106;20.014;2022-09-13T00:11:48;13.60;99.90
38456;DHT22;24237;50.106;20.014;2022-09-13T00:14:13;13.60;99.90
38456;DHT22;24237;50.106;20.014;2022-09-13T00:16:48;13.40;99.90
38456;DHT22;24237;50.106;20.014;2022-09-13T00:19:14;13.60;99.90
38456;DHT22;24237;50.106;20.014;2022-09-13T00:21:42;13.60;99.90
38456;DHT22;24237;50.106;20.014;2022-09-13T00:24:11;13.50;99.90
38456;DHT22;24237;50.106;20.014;2022-09-13T00:26:39;13.70;99.90
38456;DHT22;24237;50.106;20.014;2022-09-13T00:29:05;13.60;99.90
38456;DHT22;24237;50.106;20.014;2022-09-13T00:31:34;13.50;99.90
38456;DHT22;24237;50.106;20.014;2022-09-13T00:33:59;13.40;99.90
38456;DHT22;24237;50.106;20.014;2022-09-13T00:36:25;13.60;99.90
38456;DHT22;24237;50.106;20.014;2022-09-13T00:38:51;13.60;99.90
38456;DHT22;24237;50.106;20.014;2022-09-13T00:41:27;13.70;99.90
38456;DHT22;24237;50.106;20.014;2022-09-13T00:43:58;13.80;99.90
38456;DHT22;24237;50.106;20.014;2022-09-13T00:46:38;13.90;99.90
38456;DHT22;24237;50.106;20.014;2022-09-13T00:49:25;13.80;99.90
38456;DHT22;24237;50.106;20.014;2022-09-13T00:51:56;13.50;99.90
38456;DHT22;24237;50.106;20.014;2022-09-13T00:54:28;13.40;99.90
38456;DHT22;24237;50.106;20.014;2022-09-13T00:57:09;13.50;99.90
38456;DHT22;24237;50.106;20.014;2022-09-13T01:00:06;13.60;99.90
38456;DHT22;24237;50.106;20.014;2022-09-13T01:03:08;13.60;99.90
38456;DHT22;24237;50.106;20.014;2022-09-13T01:05:43;13.40;99.90
38456;DHT22;24237;50.106;20.014;2022-09-13T01:08:14;13.10;99.90
38456;DHT22;24237;50.106;20.014;2022-09-13T01:10:49;13.20;99.90
38456;DHT22;24237;50.106;20.014;2022-09-13T01:13:47;13.10;99.90
38456;DHT22;24237;50.106;20.014;2022-09-13T01:16:13;13.10;99.90
38456;DHT22;24237;50.106;20.014;2022-09-13T01:18:41;13.00;99.90
38456;DHT22;24237;50.106;20.014;2022-09-13T01:46:21;12.70;99.90
38456;DHT22;24237;50.106;20.014;2022-09-13T01:52:56;13.20;99.90
38456;DHT22;24237;50.106;20.014;2022-09-13T01:55:39;13.00;99.90
38456;DHT22;24237;50.106;20.014;2022-09-13T02:03:59;13.00;99.90
38456;DHT22;24237;50.106;20.014;2022-09-13T02:06:50;13.10;99.90
38456;DHT22;24237;50.106;20.014;2022-09-13T02:12:55;13.10;99.90
38456;DHT22;24237;50.106;20.014;2022-09-13T02:15:48;13.20;99.90
38456;DHT22;24237;50.106;20.014;2022-09-13T02:18:36;13.30;99.90
38456;DHT22;24237;50.106;20.014;2022-09-13T02:21:29;13.30;99.90
38456;DHT22;24237;50.106;20.014;2022-09-13T02:24:06;13.30;99.90
38456;DHT22;24237;50.106;20.014;2022-09-13T02:26:37;13.20;99.90
38456;DHT22;24237;50.106;20.014;2022-09-13T02:29:20;13.10;99.90
38456;DHT22;24237;50.106;20.014;2022-09-13T02:34:39;13.20;99.90
38456;DHT22;24237;50.106;20.014;2022-09-13T02:37:07;13.20;99.90
38456;DHT22;24237;50.106;20.014;2022-09-13T02:42:38;12.80;99.90
38456;DHT22;24237;50.106;20.014;2022-09-13T02:45:06;12.80;99.90
38456;DHT22;24237;50.106;20.014;2022-09-13T02:47:34;12.90;99.90
38456;DHT22;24237;50.106;20.014;2022-09-13T02:59:30;12.70;99.90
38456;DHT22;24237;50.106;20.014;2022-09-13T03:02:18;12.80;99.90
38456;DHT22;24237;50.106;20.014;2022-09-13T03:04:50;12.70;99.90
38456;DHT22;24237;50.106;20.014;2022-09-13T03:07:18;12.80;99.90
38456;DHT22;24237;50.106;20.014;2022-09-13T03:09:52;12.70;99.90
38456;DHT22;24237;50.106;20.014;2022-09-13T03:15:42;12.90;99.90
38456;DHT22;24237;50.106;20.014;2022-09-13T03:26:59;12.90;99.90
38456;DHT22;24237;50.106;20.014;2022-09-13T03:29:50;12.70;99.90
38456;DHT22;24237;50.106;20.014;2022-09-13T03:35:28;12.80;99.90
38456;DHT22;24237;50.106;20.014;2022-09-13T03:38:02;12.70;99.90
38456;DHT22;24237;50.106;20.014;2022-09-13T03:40:41;12.80;99.90
38456;DHT22;24237;50.106;20.014;2022-09-13T03:45:54;12.60;99.90
38456;DHT22;24237;50.106;20.014;2022-09-13T03:48:22;12.30;99.90
38456;DHT22;24237;50.106;20.014;2022-09-13T03:50:48;12.20;99.90
38456;DHT22;24237;50.106;20.014;2022-09-13T03:53:22;12.30;99.90
38456;DHT22;24237;50.106;20.014;2022-09-13T03:55:48;12.10;99.90
38456;DHT22;24237;50.106;20.014;2022-09-13T03:58:16;12.20;99.90
38456;DHT22;24237;50.106;20.014;2022-09-13T04:00:43;12.40;99.90
38456;DHT22;24237;50.106;20.014;2022-09-13T04:03:10;12.50;99.90
38456;DHT22;24237;50.106;20.014;2022-09-13T04:05:36;12.30;99.90
38456;DHT22;24237;50.106;20.014;2022-09-13T04:08:02;12.10;99.90
38456;DHT22;24237;50.106;20.014;2022-09-13T04:10:30;12.20;99.90
38456;DHT22;24237;50.106;20.014;2022-09-13T04:12:56;12.30;99.90
38456;DHT22;24237;50.106;20.014;2022-09-13T04:15:23;12.40;99.90
38456;DHT22;24237;50.106;20.014;2022-09-13T04:17:49;12.40;99.90
38456;DHT22;24237;50.106;20.014;2022-09-13T04:20:15;12.20;99.90
38456;DHT22;24237;50.106;20.014;2022-09-13T04:22:40;12.40;99.90
38456;DHT22;24237;50.106;20.014;2022-09-13T04:25:07;12.30;99.90
38456;DHT22;24237;50.106;20.014;2022-09-13T04:27:33;12.40;99.90
38456;DHT22;24237;50.106;20.014;2022-09-13T04:30:02;12.40;99.90
38456;DHT22;24237;50.106;20.014;2022-09-13T04:32:28;12.60;99.90
38456;DHT22;24237;50.106;20.014;2022-09-13T04:34:54;12.50;99.90
38456;DHT22;24237;50.106;20.014;2022-09-13T04:37:20;12.60;99.90
38456;DHT22;24237;50.106;20.014;2022-09-13T04:39:45;12.40;99.90
38456;DHT22;24237;50.106;20.014;2022-09-13T04:42:11;12.40;99.90
38456;DHT22;24237;50.106;20.014;2022-09-13T04:44:37;12.40;99.90
38456;DHT22;24237;50.106;20.014;2022-09-13T04:47:03;12.30;99.90
38456;DHT22;24237;50.106;20.014;2022-09-13T04:49:30;12.70;99.90
38456;DHT22;24237;50.106;20.014;2022-09-13T04:51:56;12.70;99.90
38456;DHT22;24237;50.106;20.014;2022-09-13T04:54:22;12.60;99.90
38456;DHT22;24237;50.106;20.014;2022-09-13T04:56:47;12.70;99.90
38456;DHT22;24237;50.106;20.014;2022-09-13T05:02:35;12.70;99.90
38456;DHT22;24237;50.106;20.014;2022-09-13T05:05:01;12.80;99.90
38456;DHT22;24237;50.106;20.014;2022-09-13T05:07:26;12.90;99.90
38456;DHT22;24237;50.106;20.014;2022-09-13T05:09:55;12.70;99.90
38456;DHT22;24237;50.106;20.014;2022-09-13T05:12:21;12.70;99.90
38456;DHT22;24237;50.106;20.014;2022-09-13T05:14:49;13.00;99.90
38456;DHT22;24237;50.106;20.014;2022-09-13T05:17:16;12.80;99.90
38456;DHT22;24237;50.106;20.014;2022-09-13T05:19:42;12.90;99.90
38456;DHT22;24237;50.106;20.014;2022-09-13T05:22:08;12.90;99.90
38456;DHT22;24237;50.106;20.014;2022-09-13T05:24:34;13.20;99.90
38456;DHT22;24237;50.106;20.014;2022-09-13T05:27:03;13.40;99.90
38456;DHT22;24237;50.106;20.014;2022-09-13T05:29:28;13.40;99.90
38456;DHT22;24237;50.106;20.014;2022-09-13T05:31:54;13.30;99.90
38456;DHT22;24237;50.106;20.014;2022-09-13T05:34:19;13.20;99.90
38456;DHT22;24237;50.106;20.014;2022-09-13T05:36:45;13.30;99.90
38456;DHT22;24237;50.106;20.014;2022-09-13T05:39:16;13.60;99.90
38456;DHT22;24237;50.106;20.014;2022-09-13T05:41:47;13.60;99.90
38456;DHT22;24237;50.106;20.014;2022-09-13T05:44:12;13.80;99.90
38456;DHT22;24237;50.106;20.014;2022-09-13T05:46:38;13.80;99.90
38456;DHT22;24237;50.106;20.014;2022-09-13T05:49:04;13.70;99.90
38456;DHT22;24237;50.106;20.014;2022-09-13T05:51:29;13.90;99.90
38456;DHT22;24237;50.106;20.014;2022-09-13T05:53:56;13.80;99.90
38456;DHT22;24237;50.106;20.014;2022-09-13T05:56:26;14.00;99.90
38456;DHT22;24237;50.106;20.014;2022-09-13T05:58:53;14.00;99.90
38456;DHT22;24237;50.106;20.014;2022-09-13T06:01:21;14.10;99.90
38456;DHT22;24237;50.106;20.014;2022-09-13T06:03:48;14.30;99.90
38456;DHT22;24237;50.106;20.014;2022-09-13T06:06:18;14.40;99.90
38456;DHT22;24237;50.106;20.014;2022-09-13T06:08:44;14.50;99.90
38456;DHT22;24237;50.106;20.014;2022-09-13T06:11:11;14.50;99.90
38456;DHT22;24237;50.106;20.014;2022-09-13T06:13:38;14.40;99.90
38456;DHT22;24237;50.106;20.014;2022-09-13T06:16:06;14.80;99.90
38456;DHT22;24237;50.106;20.014;2022-09-13T06:18:38;14.70;99.90
38456;DHT22;24237;50.106;20.014;2022-09-13T06:21:08;14.80;99.90
38456;DHT22;24237;50.106;20.014;2022-09-13T06:23:34;15.00;99.90
38456;DHT22;24237;50.106;20.014;2022-09-13T06:28:28;15.20;99.90
38456;DHT22;24237;50.106;20.014;2022-09-13T06:31:23;15.10;99.90
38456;DHT22;24237;50.106;20.014;2022-09-13T06:34:02;15.40;99.90
38456;DHT22;24237;50.106;20.014;2022-09-13T06:36:28;15.40;99.90
38456;DHT22;24237;50.106;20.014;2022-09-13T06:38:54;15.70;99.90
38456;DHT22;24237;50.106;20.014;2022-09-13T06:41:23;15.70;99.90
38456;DHT22;24237;50.106;20.014;2022-09-13T06:43:54;15.60;99.90
38456;DHT22;24237;50.106;20.014;2022-09-13T06:46:32;15.80;99.90
38456;DHT22;24237;50.106;20.014;2022-09-13T06:49:03;15.90;99.90
38456;DHT22;24237;50.106;20.014;2022-09-13T06:51:30;16.10;99.90
38456;DHT22;24237;50.106;20.014;2022-09-13T06:53:57;16.10;99.90
38456;DHT22;24237;50.106;20.014;2022-09-13T06:56:31;16.00;99.90
38456;DHT22;24237;50.106;20.014;2022-09-13T06:58:59;16.30;99.90
38456;DHT22;24237;50.106;20.014;2022-09-13T07:01:31;16.30;99.90
38456;DHT22;24237;50.106;20.014;2022-09-13T07:04:10;16.50;99.90
38456;DHT22;24237;50.106;20.014;2022-09-13T07:06:41;16.60;99.90
38456;DHT22;24237;50.106;20.014;2022-09-13T07:09:12;16.70;99.90
38456;DHT22;24237;50.106;20.014;2022-09-13T07:11:41;16.80;99.90
38456;DHT22;24237;50.106;20.014;2022-09-13T07:14:19;16.70;99.90
38456;DHT22;24237;50.106;20.014;2022-09-13T07:16:48;17.00;99.90
38456;DHT22;24237;50.106;20.014;2022-09-13T07:19:23;17.40;99.90
38456;DHT22;24237;50.106;20.014;2022-09-13T07:21:55;17.40;99.90
38456;DHT22;24237;50.106;20.014;2022-09-13T07:24:21;17.70;99.90
38456;DHT22;24237;50.106;20.014;2022-09-13T07:26:47;18.00;99.90
38456;DHT22;24237;50.106;20.014;2022-09-13T07:29:15;17.90;99.90
38456;DHT22;24237;50.106;20.014;2022-09-13T07:31:44;18.10;99.90
38456;DHT22;24237;50.106;20.014;2022-09-13T07:34:13;18.10;99.90
38456;DHT22;24237;50.106;20.014;2022-09-13T07:36:44;18.40;99.90
38456;DHT22;24237;50.106;20.014;2022-09-13T07:39:14;18.10;99.90
38456;DHT22;24237;50.106;20.014;2022-09-13T07:41:43;18.40;99.90
38456;DHT22;24237;50.106;20.014;2022-09-13T07:44:10;18.50;99.90
38456;DHT22;24237;50.106;20.014;2022-09-13T07:46:36;18.80;99.90
38456;DHT22;24237;50.106;20.014;2022-09-13T07:49:05;18.90;99.90
38456;DHT22;24237;50.106;20.014;2022-09-13T07:51:35;18.80;99.90
38456;DHT22;24237;50.106;20.014;2022-09-13T07:54:04;19.10;99.90
38456;DHT22;24237;50.106;20.014;2022-09-13T07:56:35;18.90;99.90
38456;DHT22;24237;50.106;20.014;2022-09-13T07:59:16;18.80;99.90
38456;DHT22;24237;50.106;20.014;2022-09-13T08:01:48;18.80;99.90
38456;DHT22;24237;50.106;20.014;2022-09-13T08:04:24;18.90;99.90
38456;DHT22;24237;50.106;20.014;2022-09-13T08:06:50;19.10;99.90
38456;DHT22;24237;50.106;20.014;2022-09-13T08:09:16;19.00;99.90
38456;DHT22;24237;50.106;20.014;2022-09-13T08:11:44;18.90;99.90
38456;DHT22;24237;50.106;20.014;2022-09-13T08:14:12;19.40;99.90
38456;DHT22;24237;50.106;20.014;2022-09-13T08:16:38;19.00;99.90
38456;DHT22;24237;50.106;20.014;2022-09-13T08:19:29;18.80;99.90
38456;DHT22;24237;50.106;20.014;2022-09-13T08:21:55;19.10;99.90
38456;DHT22;24237;50.106;20.014;2022-09-13T08:24:21;19.10;99.90
38456;DHT22;24237;50.106;20.014;2022-09-13T08:26:47;18.90;99.90
38456;DHT22;24237;50.106;20.014;2022-09-13T08:29:18;19.00;99.90
38456;DHT22;24237;50.106;20.014;2022-09-13T08:31:44;19.40;99.90
38456;DHT22;24237;50.106;20.014;2022-09-13T08:34:11;19.60;99.90
38456;DHT22;24237;50.106;20.014;2022-09-13T08:36:38;19.40;99.90
38456;DHT22;24237;50.106;20.014;2022-09-13T08:39:06;19.50;99.90
38456;DHT22;24237;50.106;20.014;2022-09-13T08:44:48;19.80;99.90
38456;DHT22;24237;50.106;20.014;2022-09-13T08:47:39;20.10;99.90
38456;DHT22;24237;50.106;20.014;2022-09-13T08:50:10;20.40;99.90
38456;DHT22;24237;50.106;20.014;2022-09-13T08:53:16;20.20;99.90
38456;DHT22;24237;50.106;20.014;2022-09-13T09:06:49;20.40;99.90
38456;DHT22;24237;50.106;20.014;2022-09-13T09:09:19;20.30;99.90
38456;DHT22;24237;50.106;20.014;2022-09-13T09:14:36;21.30;99.90
38456;DHT22;24237;50.106;20.014;2022-09-13T09:20:15;21.30;99.90
38456;DHT22;24237;50.106;20.014;2022-09-13T09:22:43;21.40;99.90
38456;DHT22;24237;50.106;20.014;2022-09-13T09:25:11;21.30;99.90
38456;DHT22;24237;50.106;20.014;2022-09-13T09:27:36;21.20;99.90
38456;DHT22;24237;50.106;20.014;2022-09-13T09:30:05;21.30;99.90
38456;DHT22;24237;50.106;20.014;2022-09-13T09:32:51;21.30;99.90
38456;DHT22;24237;50.106;20.014;2022-09-13T09:35:33;21.50;99.90
38456;DHT22;24237;50.106;20.014;2022-09-13T09:41:30;21.20;99.90
38456;DHT22;24237;50.106;20.014;2022-09-13T09:44:22;21.00;99.90
38456;DHT22;24237;50.106;20.014;2022-09-13T09:47:20;21.30;99.90
38456;DHT22;24237;50.106;20.014;2022-09-13T09:50:03;21.30;99.90
38456;DHT22;24237;50.106;20.014;2022-09-13T09:53:02;21.30;99.90
38456;DHT22;24237;50.106;20.014;2022-09-13T09:55:30;21.70;99.90
38456;DHT22;24237;50.106;20.014;2022-09-13T09:58:08;21.70;99.90
38456;DHT22;24237;50.106;20.014;2022-09-13T10:00:50;21.50;99.90
38456;DHT22;24237;50.106;20.014;2022-09-13T10:03:19;21.30;99.90
38456;DHT22;24237;50.106;20.014;2022-09-13T10:05:46;21.30;99.90
38456;DHT22;24237;50.106;20.014;2022-09-13T10:08:47;21.50;99.90
38456;DHT22;24237;50.106;20.014;2022-09-13T10:11:13;22.10;99.90
38456;DHT22;24237;50.106;20.014;2022-09-13T10:14:05;22.10;99.90
38456;DHT22;24237;50.106;20.014;2022-09-13T10:16:30;22.50;99.90
38456;DHT22;24237;50.106;20.014;2022-09-13T10:19:24;22.40;99.20
38456;DHT22;24237;50.106;20.014;2022-09-13T10:22:11;22.60;99.40
38456;DHT22;24237;50.106;20.014;2022-09-13T10:24:40;22.80;98.80
38456;DHT22;24237;50.106;20.014;2022-09-13T10:27:28;23.00;99.00
38456;DHT22;24237;50.106;20.014;2022-09-13T10:29:58;22.60;98.80
38456;DHT22;24237;50.106;20.014;2022-09-13T10:32:26;22.30;99.10
38456;DHT22;24237;50.106;20.014;2022-09-13T10:34:53;22.10;99.40
38456;DHT22;24237;50.106;20.014;2022-09-13T10:37:27;22.10;99.60
38456;DHT22;24237;50.106;20.014;2022-09-13T10:40:29;22.50;99.60
38456;DHT22;24237;50.106;20.014;2022-09-13T10:43:01;22.10;99.20
38456;DHT22;24237;50.106;20.014;2022-09-13T10:45:29;22.40;99.30
38456;DHT22;24237;50.106;20.014;2022-09-13T10:48:04;22.40;99.20
38456;DHT22;24237;50.106;20.014;2022-09-13T10:50:37;22.30;99.10
38456;DHT22;24237;50.106;20.014;2022-09-13T10:53:03;22.30;99.10
38456;DHT22;24237;50.106;20.014;2022-09-13T10:55:52;22.20;99.20
38456;DHT22;24237;50.106;20.014;2022-09-13T10:58:19;22.10;99.20
38456;DHT22;24237;50.106;20.014;2022-09-13T11:00:59;22.20;99.30
38456;DHT22;24237;50.106;20.014;2022-09-13T11:09:12;22.90;99.10
38456;DHT22;24237;50.106;20.014;2022-09-13T11:21:11;23.30;97.80
38456;DHT22;24237;50.106;20.014;2022-09-13T11:27:17;23.00;98.20
38456;DHT22;24237;50.106;20.014;2022-09-13T11:29:59;23.20;98.30
38456;DHT22;24237;50.106;20.014;2022-09-13T11:32:41;22.80;98.70
38456;DHT22;24237;50.106;20.014;2022-09-13T11:35:49;23.00;98.30
38456;DHT22;24237;50.106;20.014;2022-09-13T11:38:37;23.30;98.30
38456;DHT22;24237;50.106;20.014;2022-09-13T11:47:57;23.90;98.40
38456;DHT22;24237;50.106;20.014;2022-09-13T11:56:40;24.60;95.70
38456;DHT22;24237;50.106;20.014;2022-09-13T12:02:41;24.00;95.00
38456;DHT22;24237;50.106;20.014;2022-09-13T12:05:15;23.60;95.80
38456;DHT22;24237;50.106;20.014;2022-09-13T12:11:24;23.20;96.20
38456;DHT22;24237;50.106;20.014;2022-09-13T12:14:01;24.50;95.50
38456;DHT22;24237;50.106;20.014;2022-09-13T12:16:49;26.10;94.70
38456;DHT22;24237;50.106;20.014;2022-09-13T12:19:39;27.30;92.90
38456;DHT22;24237;50.106;20.014;2022-09-13T12:22:06;26.20;92.60
38456;DHT22;24237;50.106;20.014;2022-09-13T12:24:52;25.60;92.90
38456;DHT22;24237;50.106;20.014;2022-09-13T12:27:39;26.50;92.50
38456;DHT22;24237;50.106;20.014;2022-09-13T12:30:18;27.40;91.70
38456;DHT22;24237;50.106;20.014;2022-09-13T12:32:46;28.20;90.60
38456;DHT22;24237;50.106;20.014;2022-09-13T12:35:31;28.90;90.10
38456;DHT22;24237;50.106;20.014;2022-09-13T12:55:59;24.30;88.90
38456;DHT22;24237;50.106;20.014;2022-09-13T13:01:20;23.80;91.10
38456;DHT22;24237;50.106;20.014;2022-09-13T13:06:29;23.50;91.50
38456;DHT22;24237;50.106;20.014;2022-09-13T13:09:02;23.60;91.50
38456;DHT22;24237;50.106;20.014;2022-09-13T13:11:41;23.50;91.40
38456;DHT22;24237;50.106;20.014;2022-09-13T13:23:32;24.40;91.20
38456;DHT22;24237;50.106;20.014;2022-09-13T13:41:56;25.80;90.00
38456;DHT22;24237;50.106;20.014;2022-09-13T13:58:11;24.40;90.60
38456;DHT22;24237;50.106;20.014;2022-09-13T14:00:46;24.20;90.80
38456;DHT22;24237;50.106;20.014;2022-09-13T14:19:50;24.90;90.40
38456;DHT22;24237;50.106;20.014;2022-09-13T14:22:24;25.70;89.10
38456;DHT22;24237;50.106;20.014;2022-09-13T14:24:53;26.40;88.50
38456;DHT22;24237;50.106;20.014;2022-09-13T14:27:31;26.70;87.90
38456;DHT22;24237;50.106;20.014;2022-09-13T14:30:04;26.90;86.60
38456;DHT22;24237;50.106;20.014;2022-09-13T14:32:45;27.30;86.60
38456;DHT22;24237;50.106;20.014;2022-09-13T14:37:55;26.30;86.20
38456;DHT22;24237;50.106;20.014;2022-09-13T14:40:27;25.90;87.00
38456;DHT22;24237;50.106;20.014;2022-09-13T14:42:54;26.30;86.80
38456;DHT22;24237;50.106;20.014;2022-09-13T14:45:23;26.00;87.50
38456;DHT22;24237;50.106;20.014;2022-09-13T14:53:26;25.80;86.90
38456;DHT22;24237;50.106;20.014;2022-09-13T14:56:12;25.30;87.50
38456;DHT22;24237;50.106;20.014;2022-09-13T14:58:50;24.90;88.70
38456;DHT22;24237;50.106;20.014;2022-09-13T15:01:30;24.30;89.60
38456;DHT22;24237;50.106;20.014;2022-09-13T15:03:58;24.00;90.20
38456;DHT22;24237;50.106;20.014;2022-09-13T15:06:40;23.40;90.80
38456;DHT22;24237;50.106;20.014;2022-09-13T15:14:33;23.30;91.50
38456;DHT22;24237;50.106;20.014;2022-09-13T15:17:10;23.20;92.20
38456;DHT22;24237;50.106;20.014;2022-09-13T15:19:41;23.30;91.50
38456;DHT22;24237;50.106;20.014;2022-09-13T15:26:11;23.10;91.50
38456;DHT22;24237;50.106;20.014;2022-09-13T15:31:06;22.80;92.30
38456;DHT22;24237;50.106;20.014;2022-09-13T15:33:33;22.50;92.50
38456;DHT22;24237;50.106;20.014;2022-09-13T15:38:59;22.50;92.60
38456;DHT22;24237;50.106;20.014;2022-09-13T15:41:36;22.70;92.60
38456;DHT22;24237;50.106;20.014;2022-09-13T15:44:04;22.60;92.60
38456;DHT22;24237;50.106;20.014;2022-09-13T15:46:30;22.60;93.10
38456;DHT22;24237;50.106;20.014;2022-09-13T15:49:04;22.60;92.70
38456;DHT22;24237;50.106;20.014;2022-09-13T15:51:55;22.50;92.80
38456;DHT22;24237;50.106;20.014;2022-09-13T15:54:58;22.40;93.20
38456;DHT22;24237;50.106;20.014;2022-09-13T15:57:25;22.50;93.10
38456;DHT22;24237;50.106;20.014;2022-09-13T15:59:52;22.40;93.20
38456;DHT22;24237;50.106;20.014;2022-09-13T16:02:24;22.20;93.40
38456;DHT22;24237;50.106;20.014;2022-09-13T16:04:50;22.10;93.60
38456;DHT22;24237;50.106;20.014;2022-09-13T16:07:17;22.20;93.40
38456;DHT22;24237;50.106;20.014;2022-09-13T16:09:43;22.20;93.60
38456;DHT22;24237;50.106;20.014;2022-09-13T16:12:12;22.30;93.50
38456;DHT22;24237;50.106;20.014;2022-09-13T16:14:38;22.40;93.50
38456;DHT22;24237;50.106;20.014;2022-09-13T16:17:28;22.20;93.80
38456;DHT22;24237;50.106;20.014;2022-09-13T16:19:54;22.30;93.80
38456;DHT22;24237;50.106;20.014;2022-09-13T16:22:20;22.30;94.00
38456;DHT22;24237;50.106;20.014;2022-09-13T16:24:49;22.30;93.80
38456;DHT22;24237;50.106;20.014;2022-09-13T16:27:16;22.20;94.30
38456;DHT22;24237;50.106;20.014;2022-09-13T16:29:42;22.30;94.10
38456;DHT22;24237;50.106;20.014;2022-09-13T16:32:08;22.30;94.20
38456;DHT22;24237;50.106;20.014;2022-09-13T16:34:34;22.10;94.30
38456;DHT22;24237;50.106;20.014;2022-09-13T16:36:59;22.20;94.20
38456;DHT22;24237;50.106;20.014;2022-09-13T16:39:25;22.20;94.40
38456;DHT22;24237;50.106;20.014;2022-09-13T16:41:51;22.10;94.40
38456;DHT22;24237;50.106;20.014;2022-09-13T16:44:16;22.30;94.50
38456;DHT22;24237;50.106;20.014;2022-09-13T16:46:42;22.20;94.50
38456;DHT22;24237;50.106;20.014;2022-09-13T16:49:08;22.30;94.60
38456;DHT22;24237;50.106;20.014;2022-09-13T16:51:34;22.20;94.70
38456;DHT22;24237;50.106;20.014;2022-09-13T16:54:01;22.20;94.70
38456;DHT22;24237;50.106;20.014;2022-09-13T16:56:28;22.20;94.80
38456;DHT22;24237;50.106;20.014;2022-09-13T16:58:55;22.00;95.00
38456;DHT22;24237;50.106;20.014;2022-09-13T17:01:28;22.10;95.00
38456;DHT22;24237;50.106;20.014;2022-09-13T17:03:54;22.10;95.10
38456;DHT22;24237;50.106;20.014;2022-09-13T17:06:21;22.00;95.30
38456;DHT22;24237;50.106;20.014;2022-09-13T17:11:19;21.80;95.70
38456;DHT22;24237;50.106;20.014;2022-09-13T17:13:45;21.80;95.70
38456;DHT22;24237;50.106;20.014;2022-09-13T17:16:40;21.90;95.70
38456;DHT22;24237;50.106;20.014;2022-09-13T17:19:10;21.90;95.80
38456;DHT22;24237;50.106;20.014;2022-09-13T17:21:51;21.80;95.80
38456;DHT22;24237;50.106;20.014;2022-09-13T17:24:17;22.00;95.90
38456;DHT22;24237;50.106;20.014;2022-09-13T17:26:43;21.80;95.90
38456;DHT22;24237;50.106;20.014;2022-09-13T17:29:12;21.80;96.20
38456;DHT22;24237;50.106;20.014;2022-09-13T17:31:39;21.80;96.20
38456;DHT22;24237;50.106;20.014;2022-09-13T17:34:05;21.70;96.20
38456;DHT22;24237;50.106;20.014;2022-09-13T17:36:31;21.70;96.40
38456;DHT22;24237;50.106;20.014;2022-09-13T17:42:16;21.70;96.50
38456;DHT22;24237;50.106;20.014;2022-09-13T17:45:12;21.80;96.60
38456;DHT22;24237;50.106;20.014;2022-09-13T17:47:38;21.90;96.70
38456;DHT22;24237;50.106;20.014;2022-09-13T17:50:25;21.70;96.70
38456;DHT22;24237;50.106;20.014;2022-09-13T17:52:51;21.70;96.60
38456;DHT22;24237;50.106;20.014;2022-09-13T17:55:23;21.80;96.60
38456;DHT22;24237;50.106;20.014;2022-09-13T17:57:48;21.80;96.70
38456;DHT22;24237;50.106;20.014;2022-09-13T18:00:14;21.90;96.70
38456;DHT22;24237;50.106;20.014;2022-09-13T18:02:43;21.90;96.70
38456;DHT22;24237;50.106;20.014;2022-09-13T18:05:08;21.90;96.90
38456;DHT22;24237;50.106;20.014;2022-09-13T18:07:34;21.80;97.10
38456;DHT22;24237;50.106;20.014;2022-09-13T18:09:59;21.60;97.20
38456;DHT22;24237;50.106;20.014;2022-09-13T18:12:25;21.60;97.50
38456;DHT22;24237;50.106;20.014;2022-09-13T18:14:51;21.70;97.40
38456;DHT22;24237;50.106;20.014;2022-09-13T18:17:16;21.70;97.40
38456;DHT22;24237;50.106;20.014;2022-09-13T18:19:42;21.60;97.60
38456;DHT22;24237;50.106;20.014;2022-09-13T18:22:08;21.70;97.70
38456;DHT22;24237;50.106;20.014;2022-09-13T18:24:34;21.60;97.80
38456;DHT22;24237;50.106;20.014;2022-09-13T18:27:01;21.50;98.00
38456;DHT22;24237;50.106;20.014;2022-09-13T18:29:26;21.50;98.10
38456;DHT22;24237;50.106;20.014;2022-09-13T18:31:57;21.60;98.10
38456;DHT22;24237;50.106;20.014;2022-09-13T18:34:26;21.40;98.20
38456;DHT22;24237;50.106;20.014;2022-09-13T18:36:52;21.40;98.30
38456;DHT22;24237;50.106;20.014;2022-09-13T18:39:19;21.50;98.40
38456;DHT22;24237;50.106;20.014;2022-09-13T18:41:46;21.40;98.40
38456;DHT22;24237;50.106;20.014;2022-09-13T18:44:14;21.50;98.50
38456;DHT22;24237;50.106;20.014;2022-09-13T18:46:40;21.60;98.50
38456;DHT22;24237;50.106;20.014;2022-09-13T18:49:06;21.50;98.50
38456;DHT22;24237;50.106;20.014;2022-09-13T18:51:41;21.60;98.70
38456;DHT22;24237;50.106;20.014;2022-09-13T18:54:11;21.60;98.70
38456;DHT22;24237;50.106;20.014;2022-09-13T18:56:38;21.60;98.70
38456;DHT22;24237;50.106;20.014;2022-09-13T18:59:05;21.60;98.90
38456;DHT22;24237;50.106;20.014;2022-09-13T19:01:36;21.30;99.20
38456;DHT22;24237;50.106;20.014;2022-09-13T19:07:24;21.30;99.40
38456;DHT22;24237;50.106;20.014;2022-09-13T19:09:53;21.40;99.30
38456;DHT22;24237;50.106;20.014;2022-09-13T19:12:28;21.30;99.40
38456;DHT22;24237;50.106;20.014;2022-09-13T19:14:53;21.10;99.80
38456;DHT22;24237;50.106;20.014;2022-09-13T19:17:19;21.10;99.90
38456;DHT22;24237;50.106;20.014;2022-09-13T19:19:48;21.00;99.90
38456;DHT22;24237;50.106;20.014;2022-09-13T19:22:22;21.00;99.90
38456;DHT22;24237;50.106;20.014;2022-09-13T19:24:48;20.90;99.90
38456;DHT22;24237;50.106;20.014;2022-09-13T19:27:16;21.00;99.90
38456;DHT22;24237;50.106;20.014;2022-09-13T19:29:41;20.90;99.90
38456;DHT22;24237;50.106;20.014;2022-09-13T19:32:07;20.80;99.90
38456;DHT22;24237;50.106;20.014;2022-09-13T19:34:33;20.80;99.90
38456;DHT22;24237;50.106;20.014;2022-09-13T19:36:58;20.90;99.90
38456;DHT22;24237;50.106;20.014;2022-09-13T19:39:25;20.70;99.90
38456;DHT22;24237;50.106;20.014;2022-09-13T19:41:50;20.70;99.90
38456;DHT22;24237;50.106;20.014;2022-09-13T19:44:17;20.80;99.90
38456;DHT22;24237;50.106;20.014;2022-09-13T19:46:44;20.70;99.90
38456;DHT22;24237;50.106;20.014;2022-09-13T19:49:15;20.70;99.90
38456;DHT22;24237;50.106;20.014;2022-09-13T19:51:42;20.70;99.90
38456;DHT22;24237;50.106;20.014;2022-09-13T19:54:12;20.60;99.90